Time;durP1;ratioP1;P1;durP2;ratioP2;P2;SDS_P1;SDS_P2;PMS_P1;PMS_P2;Temp;Humidity;BMP_temperature;BMP_pressure;BME280_temperature;BME280_humidity;BME280_pressure;Samples;Min_cycle;Max_cycle;Signal;HPM_P1;HPM_P2
2019/12/15 00:00:10;;;;;;;2.2;1.2;;;;;;;8.65;73.63965;94238.28;;;;
2019/12/15 00:06:20;;;;;;;2.2;1.2;;;;;;;8.65;73.63965;94238.28;;;;
2019/12/15 00:07:21;;;;;;;2.2;1.2;;;;;;;8.65;73.63965;94238.28;;;;
2019/12/15 00:08:23;;;;;;;1.4;1.2;;;;;;;8.44;73.97656;94234.11;;;;
2019/12/15 00:09:24;;;;;;;1.4;1.2;;;;;;;8.44;73.97656;94234.11;;;;
2019/12/15 00:10:25;;;;;;;1.4;1.2;;;;;;;8.44;73.97656;94234.11;;;;
2019/12/15 00:11:26;;;;;;;1.4;1.2;;;;;;;8.44;73.97656;94234.11;;;;
2019/12/15 00:12:28;;;;;;;1.4;1.2;;;;;;;8.44;73.97656;94234.11;;;;
2019/12/15 00:13:29;;;;;;;1.4;1.2;;;;;;;8.44;73.97656;94234.11;;;;
2019/12/15 00:14:30;;;;;;;1.4;1.2;;;;;;;8.44;73.97656;94234.11;;;;
2019/12/15 00:15:31;;;;;;;1.4;1.2;;;;;;;8.44;73.97656;94234.11;;;;
2019/12/15 00:16:32;;;;;;;1.4;1.2;;;;;;;8.44;73.97656;94234.11;;;;
2019/12/15 00:17:34;;;;;;;1.4;1.2;;;;;;;8.44;73.97656;94234.11;;;;
2019/12/15 00:18:35;;;;;;;2;1.1;;;;;;;8.28;74.20508;94225.67;;;;
2019/12/15 00:19:36;;;;;;;2;1.1;;;;;;;8.28;74.20508;94225.67;;;;
2019/12/15 00:20:37;;;;;;;2;1.1;;;;;;;8.28;74.20508;94225.67;;;;
2019/12/15 00:21:38;;;;;;;2;1.1;;;;;;;8.28;74.20508;94225.67;;;;
2019/12/15 00:22:39;;;;;;;2;1.1;;;;;;;8.28;74.20508;94225.67;;;;
2019/12/15 00:23:41;;;;;;;2;1.1;;;;;;;8.28;74.20508;94225.67;;;;
2019/12/15 00:24:42;;;;;;;2;1.1;;;;;;;8.28;74.20508;94225.67;;;;
2019/12/15 00:25:43;;;;;;;2;1.1;;;;;;;8.28;74.20508;94225.67;;;;
2019/12/15 00:26:44;;;;;;;2;1.1;;;;;;;8.28;74.20508;94225.67;;;;
2019/12/15 00:27:45;;;;;;;2;1.1;;;;;;;8.28;74.20508;94225.67;;;;
2019/12/15 00:28:46;;;;;;;2;1.1;;;;;;;8.28;74.20508;94225.67;;;;
2019/12/15 00:29:47;;;;;;;1.9;1.25;;;;;;;8.02;74.29785;94223.65;;;;
2019/12/15 00:30:48;;;;;;;1.9;1.25;;;;;;;8.02;74.29785;94223.65;;;;
2019/12/15 00:31:49;;;;;;;1.9;1.25;;;;;;;8.02;74.29785;94223.65;;;;
2019/12/15 00:32:50;;;;;;;1.9;1.25;;;;;;;8.02;74.29785;94223.65;;;;
2019/12/15 00:33:51;;;;;;;1.9;1.25;;;;;;;8.02;74.29785;94223.65;;;;
2019/12/15 00:34:53;;;;;;;1.9;1.25;;;;;;;8.02;74.29785;94223.65;;;;
2019/12/15 00:35:54;;;;;;;1.9;1.25;;;;;;;8.02;74.29785;94223.65;;;;
2019/12/15 00:36:55;;;;;;;1.9;1.25;;;;;;;8.02;74.29785;94223.65;;;;
2019/12/15 00:37:56;;;;;;;1.9;1.25;;;;;;;8.02;74.29785;94223.65;;;;
2019/12/15 00:38:57;;;;;;;1.9;1.25;;;;;;;8.02;74.29785;94223.65;;;;
2019/12/15 00:39:58;;;;;;;1.9;1.1;;;;;;;7.88;74.54004;94242.92;;;;
2019/12/15 00:40:59;;;;;;;1.9;1.1;;;;;;;7.88;74.54004;94242.92;;;;
2019/12/15 00:42:00;;;;;;;1.9;1.1;;;;;;;7.88;74.54004;94242.92;;;;
2019/12/15 00:43:02;;;;;;;1.9;1.1;;;;;;;7.88;74.54004;94242.92;;;;
2019/12/15 00:44:03;;;;;;;1.9;1.1;;;;;;;7.88;74.54004;94242.92;;;;
2019/12/15 00:45:04;;;;;;;1.9;1.1;;;;;;;7.88;74.54004;94242.92;;;;
2019/12/15 00:46:05;;;;;;;1.9;1.1;;;;;;;7.88;74.54004;94242.92;;;;
2019/12/15 00:47:06;;;;;;;1.9;1.1;;;;;;;7.88;74.54004;94242.92;;;;
2019/12/15 00:48:07;;;;;;;1.9;1.1;;;;;;;7.88;74.54004;94242.92;;;;
2019/12/15 00:49:08;;;;;;;1.9;1.1;;;;;;;7.88;74.54004;94242.92;;;;
2019/12/15 00:50:09;;;;;;;1.9;1.1;;;;;;;7.88;74.54004;94242.92;;;;
2019/12/15 00:51:11;;;;;;;1.65;1.4;;;;;;;7.73;74.72852;94245.76;;;;
2019/12/15 00:52:12;;;;;;;1.65;1.4;;;;;;;7.73;74.72852;94245.76;;;;
2019/12/15 00:53:13;;;;;;;1.65;1.4;;;;;;;7.73;74.72852;94245.76;;;;
2019/12/15 00:54:14;;;;;;;1.65;1.4;;;;;;;7.73;74.72852;94245.76;;;;
2019/12/15 00:55:15;;;;;;;1.65;1.4;;;;;;;7.73;74.72852;94245.76;;;;
2019/12/15 00:56:16;;;;;;;1.65;1.4;;;;;;;7.73;74.72852;94245.76;;;;
2019/12/15 00:57:17;;;;;;;1.65;1.4;;;;;;;7.73;74.72852;94245.76;;;;
2019/12/15 00:58:18;;;;;;;1.65;1.4;;;;;;;7.73;74.72852;94245.76;;;;
2019/12/15 00:59:19;;;;;;;1.65;1.4;;;;;;;7.73;74.72852;94245.76;;;;
2019/12/15 01:00:21;;;;;;;1.65;1.4;;;;;;;7.73;74.72852;94245.76;;;;
2019/12/15 01:01:23;;;;;;;2.25;1.5;;;;;;;7.64;75.02051;94239.98;;;;
2019/12/15 01:02:24;;;;;;;2.25;1.5;;;;;;;7.64;75.02051;94239.98;;;;
2019/12/15 01:03:36;;;;;;;2.25;1.5;;;;;;;7.64;75.02051;94239.98;;;;
2019/12/15 01:05:00;;;;;;;2.25;1.5;;;;;;;7.64;75.02051;94239.98;;;;
2019/12/15 01:06:03;;;;;;;2.25;1.5;;;;;;;7.64;75.02051;94239.98;;;;
2019/12/15 01:07:09;;;;;;;2.25;1.5;;;;;;;7.64;75.02051;94239.98;;;;
2019/12/15 01:08:11;;;;;;;2.25;1.5;;;;;;;7.64;75.02051;94239.98;;;;
2019/12/15 01:09:13;;;;;;;2.25;1.5;;;;;;;7.64;75.02051;94239.98;;;;
2019/12/15 01:10:15;;;;;;;2.25;1.5;;;;;;;7.64;75.02051;94239.98;;;;
2019/12/15 01:11:16;;;;;;;2.25;1.5;;;;;;;7.64;75.02051;94239.98;;;;
2019/12/15 01:12:17;;;;;;;2.5;1.5;;;;;;;7.38;75.3584;94246.37;;;;
2019/12/15 01:13:18;;;;;;;2.5;1.5;;;;;;;7.38;75.3584;94246.37;;;;
2019/12/15 01:14:19;;;;;;;2.5;1.5;;;;;;;7.38;75.3584;94246.37;;;;
2019/12/15 01:15:20;;;;;;;2.5;1.5;;;;;;;7.38;75.3584;94246.37;;;;
2019/12/15 01:16:22;;;;;;;2.5;1.5;;;;;;;7.38;75.3584;94246.37;;;;
2019/12/15 01:17:23;;;;;;;2.5;1.5;;;;;;;7.38;75.3584;94246.37;;;;
2019/12/15 01:18:24;;;;;;;2.5;1.5;;;;;;;7.38;75.3584;94246.37;;;;
2019/12/15 01:19:25;;;;;;;2.5;1.5;;;;;;;7.38;75.3584;94246.37;;;;
2019/12/15 01:20:26;;;;;;;2.5;1.5;;;;;;;7.38;75.3584;94246.37;;;;
2019/12/15 01:21:27;;;;;;;2.5;1.5;;;;;;;7.38;75.3584;94246.37;;;;
2019/12/15 01:22:28;;;;;;;2.3;1.5;;;;;;;7.23;76.0332;94238.59;;;;
2019/12/15 01:23:29;;;;;;;2.3;1.5;;;;;;;7.23;76.0332;94238.59;;;;
2019/12/15 01:24:30;;;;;;;2.3;1.5;;;;;;;7.23;76.0332;94238.59;;;;
2019/12/15 01:25:32;;;;;;;2.3;1.5;;;;;;;7.23;76.0332;94238.59;;;;
2019/12/15 01:26:33;;;;;;;2.3;1.5;;;;;;;7.23;76.0332;94238.59;;;;
2019/12/15 01:27:34;;;;;;;2.3;1.5;;;;;;;7.23;76.0332;94238.59;;;;
2019/12/15 01:28:35;;;;;;;2.3;1.5;;;;;;;7.23;76.0332;94238.59;;;;
2019/12/15 01:29:36;;;;;;;2.3;1.5;;;;;;;7.23;76.0332;94238.59;;;;
2019/12/15 01:30:37;;;;;;;2.3;1.5;;;;;;;7.23;76.0332;94238.59;;;;
2019/12/15 01:31:38;;;;;;;2.3;1.5;;;;;;;7.23;76.0332;94238.59;;;;
2019/12/15 01:32:39;;;;;;;2.3;1.5;;;;;;;7.23;76.0332;94238.59;;;;
2019/12/15 01:33:40;;;;;;;2.65;2.3;;;;;;;7.05;76.24512;94235.16;;;;
2019/12/15 01:34:42;;;;;;;2.65;2.3;;;;;;;7.05;76.24512;94235.16;;;;
2019/12/15 01:35:43;;;;;;;2.65;2.3;;;;;;;7.05;76.24512;94235.16;;;;
2019/12/15 01:36:44;;;;;;;2.65;2.3;;;;;;;7.05;76.24512;94235.16;;;;
2019/12/15 01:37:45;;;;;;;2.65;2.3;;;;;;;7.05;76.24512;94235.16;;;;
2019/12/15 01:38:46;;;;;;;2.65;2.3;;;;;;;7.05;76.24512;94235.16;;;;
2019/12/15 01:39:47;;;;;;;2.65;2.3;;;;;;;7.05;76.24512;94235.16;;;;
2019/12/15 01:40:48;;;;;;;2.65;2.3;;;;;;;7.05;76.24512;94235.16;;;;
2019/12/15 01:41:49;;;;;;;2.65;2.3;;;;;;;7.05;76.24512;94235.16;;;;
2019/12/15 01:42:50;;;;;;;2.65;2.3;;;;;;;7.05;76.24512;94235.16;;;;
2019/12/15 01:43:51;;;;;;;2.7;2;;;;;;;7.06;76.66992;94245.76;;;;
2019/12/15 01:44:53;;;;;;;2.7;2;;;;;;;7.06;76.66992;94245.76;;;;
2019/12/15 01:45:54;;;;;;;2.7;2;;;;;;;7.06;76.66992;94245.76;;;;
2019/12/15 01:46:55;;;;;;;2.7;2;;;;;;;7.06;76.66992;94245.76;;;;
2019/12/15 01:47:56;;;;;;;2.7;2;;;;;;;7.06;76.66992;94245.76;;;;
2019/12/15 01:48:57;;;;;;;2.7;2;;;;;;;7.06;76.66992;94245.76;;;;
2019/12/15 01:49:58;;;;;;;2.7;2;;;;;;;7.06;76.66992;94245.76;;;;
2019/12/15 01:50:59;;;;;;;2.7;2;;;;;;;7.06;76.66992;94245.76;;;;
2019/12/15 01:52:00;;;;;;;2.7;2;;;;;;;7.06;76.66992;94245.76;;;;
2019/12/15 01:53:01;;;;;;;2.7;2;;;;;;;7.06;76.66992;94245.76;;;;
2019/12/15 01:54:02;;;;;;;1.7;1.5;;;;;;;7.04;76.91016;94224.64;;;;
2019/12/15 01:55:03;;;;;;;1.7;1.5;;;;;;;7.04;76.91016;94224.64;;;;
2019/12/15 01:56:05;;;;;;;1.7;1.5;;;;;;;7.04;76.91016;94224.64;;;;
2019/12/15 01:57:06;;;;;;;1.7;1.5;;;;;;;7.04;76.91016;94224.64;;;;
2019/12/15 01:58:07;;;;;;;1.7;1.5;;;;;;;7.04;76.91016;94224.64;;;;
2019/12/15 01:59:08;;;;;;;1.7;1.5;;;;;;;7.04;76.91016;94224.64;;;;
2019/12/15 02:00:09;;;;;;;1.7;1.5;;;;;;;7.04;76.91016;94224.64;;;;
2019/12/15 02:01:13;;;;;;;1.7;1.5;;;;;;;7.04;76.91016;94224.64;;;;
2019/12/15 02:02:21;;;;;;;1.7;1.5;;;;;;;7.04;76.91016;94224.64;;;;
2019/12/15 02:03:30;;;;;;;1.7;1.5;;;;;;;7.04;76.91016;94224.64;;;;
2019/12/15 02:05:48;;;;;;;1.7;1.5;;;;;;;7.04;76.91016;94224.64;;;;
2019/12/15 02:06:57;;;;;;;2.25;2;;;;;;;7;77.5498;94215.85;;;;
2019/12/15 02:07:58;;;;;;;2.25;2;;;;;;;7;77.5498;94215.85;;;;
2019/12/15 02:08:59;;;;;;;2.25;2;;;;;;;7;77.5498;94215.85;;;;
2019/12/15 02:10:00;;;;;;;2.25;2;;;;;;;7;77.5498;94215.85;;;;
2019/12/15 02:11:02;;;;;;;2.25;2;;;;;;;7;77.5498;94215.85;;;;
2019/12/15 02:12:03;;;;;;;2.25;2;;;;;;;7;77.5498;94215.85;;;;
2019/12/15 02:13:04;;;;;;;2.25;2;;;;;;;7;77.5498;94215.85;;;;
2019/12/15 02:14:05;;;;;;;2.25;2;;;;;;;7;77.5498;94215.85;;;;
2019/12/15 02:15:07;;;;;;;2.25;2;;;;;;;7;77.5498;94215.85;;;;
2019/12/15 02:16:08;;;;;;;3.05;1.8;;;;;;;6.89;78.11426;94179.55;;;;
2019/12/15 02:17:10;;;;;;;3.05;1.8;;;;;;;6.89;78.11426;94179.55;;;;
2019/12/15 02:18:11;;;;;;;3.05;1.8;;;;;;;6.89;78.11426;94179.55;;;;
2019/12/15 02:19:12;;;;;;;3.05;1.8;;;;;;;6.89;78.11426;94179.55;;;;
2019/12/15 02:20:13;;;;;;;3.05;1.8;;;;;;;6.89;78.11426;94179.55;;;;
2019/12/15 02:21:14;;;;;;;3.05;1.8;;;;;;;6.89;78.11426;94179.55;;;;
2019/12/15 02:22:16;;;;;;;3.05;1.8;;;;;;;6.89;78.11426;94179.55;;;;
2019/12/15 02:23:17;;;;;;;3.05;1.8;;;;;;;6.89;78.11426;94179.55;;;;
2019/12/15 02:24:18;;;;;;;3.05;1.8;;;;;;;6.89;78.11426;94179.55;;;;
2019/12/15 02:25:19;;;;;;;3.05;1.8;;;;;;;6.89;78.11426;94179.55;;;;
2019/12/15 02:26:20;;;;;;;4.1;1.8;;;;;;;6.92;80.42773;94154.54;;;;
2019/12/15 02:27:21;;;;;;;4.1;1.8;;;;;;;6.92;80.42773;94154.54;;;;
2019/12/15 02:28:23;;;;;;;4.1;1.8;;;;;;;6.92;80.42773;94154.54;;;;
2019/12/15 02:29:24;;;;;;;4.1;1.8;;;;;;;6.92;80.42773;94154.54;;;;
2019/12/15 02:30:25;;;;;;;4.1;1.8;;;;;;;6.92;80.42773;94154.54;;;;
2019/12/15 02:31:26;;;;;;;4.1;1.8;;;;;;;6.92;80.42773;94154.54;;;;
2019/12/15 02:32:27;;;;;;;4.1;1.8;;;;;;;6.92;80.42773;94154.54;;;;
2019/12/15 02:33:28;;;;;;;4.1;1.8;;;;;;;6.92;80.42773;94154.54;;;;
2019/12/15 02:34:30;;;;;;;4.1;1.8;;;;;;;6.92;80.42773;94154.54;;;;
2019/12/15 02:35:31;;;;;;;4.1;1.8;;;;;;;6.92;80.42773;94154.54;;;;
2019/12/15 02:36:32;;;;;;;2.2;1.65;;;;;;;6.88;81.08984;94137.18;;;;
2019/12/15 02:37:33;;;;;;;2.2;1.65;;;;;;;6.88;81.08984;94137.18;;;;
2019/12/15 02:38:34;;;;;;;2.2;1.65;;;;;;;6.88;81.08984;94137.18;;;;
2019/12/15 02:39:35;;;;;;;2.2;1.65;;;;;;;6.88;81.08984;94137.18;;;;
2019/12/15 02:40:37;;;;;;;2.2;1.65;;;;;;;6.88;81.08984;94137.18;;;;
2019/12/15 02:41:38;;;;;;;2.2;1.65;;;;;;;6.88;81.08984;94137.18;;;;
2019/12/15 02:42:39;;;;;;;2.2;1.65;;;;;;;6.88;81.08984;94137.18;;;;
2019/12/15 02:43:40;;;;;;;2.2;1.65;;;;;;;6.88;81.08984;94137.18;;;;
2019/12/15 02:44:42;;;;;;;2.2;1.65;;;;;;;6.88;81.08984;94137.18;;;;
2019/12/15 02:45:43;;;;;;;2.2;1.65;;;;;;;6.88;81.08984;94137.18;;;;
2019/12/15 02:46:44;;;;;;;2.2;1.65;;;;;;;6.88;81.08984;94137.18;;;;
2019/12/15 02:47:45;;;;;;;2.25;1.4;;;;;;;6.86;82.03809;94116.06;;;;
2019/12/15 02:48:47;;;;;;;2.25;1.4;;;;;;;6.86;82.03809;94116.06;;;;
2019/12/15 02:49:48;;;;;;;2.25;1.4;;;;;;;6.86;82.03809;94116.06;;;;
2019/12/15 02:50:49;;;;;;;2.25;1.4;;;;;;;6.86;82.03809;94116.06;;;;
2019/12/15 02:51:50;;;;;;;2.25;1.4;;;;;;;6.86;82.03809;94116.06;;;;
2019/12/15 02:52:51;;;;;;;2.25;1.4;;;;;;;6.86;82.03809;94116.06;;;;
2019/12/15 02:53:52;;;;;;;2.25;1.4;;;;;;;6.86;82.03809;94116.06;;;;
2019/12/15 02:54:53;;;;;;;2.25;1.4;;;;;;;6.86;82.03809;94116.06;;;;
2019/12/15 02:55:54;;;;;;;2.25;1.4;;;;;;;6.86;82.03809;94116.06;;;;
2019/12/15 02:56:56;;;;;;;2.25;1.4;;;;;;;6.86;82.03809;94116.06;;;;
2019/12/15 02:57:57;;;;;;;1.6;1.2;;;;;;;6.75;82.16504;94122.82;;;;
2019/12/15 02:58:58;;;;;;;1.6;1.2;;;;;;;6.75;82.16504;94122.82;;;;
2019/12/15 02:59:59;;;;;;;1.6;1.2;;;;;;;6.75;82.16504;94122.82;;;;
2019/12/15 03:01:00;;;;;;;1.6;1.2;;;;;;;6.75;82.16504;94122.82;;;;
2019/12/15 03:02:02;;;;;;;1.6;1.2;;;;;;;6.75;82.16504;94122.82;;;;
2019/12/15 03:03:03;;;;;;;1.6;1.2;;;;;;;6.75;82.16504;94122.82;;;;
2019/12/15 03:04:04;;;;;;;1.6;1.2;;;;;;;6.75;82.16504;94122.82;;;;
2019/12/15 03:05:05;;;;;;;1.6;1.2;;;;;;;6.75;82.16504;94122.82;;;;
2019/12/15 03:06:06;;;;;;;1.6;1.2;;;;;;;6.75;82.16504;94122.82;;;;
2019/12/15 03:07:08;;;;;;;1.6;1.2;;;;;;;6.75;82.16504;94122.82;;;;
2019/12/15 03:08:09;;;;;;;1.6;1.2;;;;;;;6.75;82.16504;94122.82;;;;
2019/12/15 03:09:11;;;;;;;2.25;1.35;;;;;;;6.72;81.91699;94144.25;;;;
2019/12/15 03:10:12;;;;;;;2.25;1.35;;;;;;;6.72;81.91699;94144.25;;;;
2019/12/15 03:11:14;;;;;;;2.25;1.35;;;;;;;6.72;81.91699;94144.25;;;;
2019/12/15 03:12:15;;;;;;;2.25;1.35;;;;;;;6.72;81.91699;94144.25;;;;
2019/12/15 03:13:16;;;;;;;2.25;1.35;;;;;;;6.72;81.91699;94144.25;;;;
2019/12/15 03:14:18;;;;;;;2.25;1.35;;;;;;;6.72;81.91699;94144.25;;;;
2019/12/15 03:15:19;;;;;;;2.25;1.35;;;;;;;6.72;81.91699;94144.25;;;;
2019/12/15 03:16:20;;;;;;;2.25;1.35;;;;;;;6.72;81.91699;94144.25;;;;
2019/12/15 03:17:21;;;;;;;2.25;1.35;;;;;;;6.72;81.91699;94144.25;;;;
2019/12/15 03:18:23;;;;;;;2.25;1.35;;;;;;;6.72;81.91699;94144.25;;;;
2019/12/15 03:19:24;;;;;;;1.85;1.3;;;;;;;6.65;81.91309;94198.16;;;;
2019/12/15 03:20:25;;;;;;;1.85;1.3;;;;;;;6.65;81.91309;94198.16;;;;
2019/12/15 03:21:26;;;;;;;1.85;1.3;;;;;;;6.65;81.91309;94198.16;;;;
2019/12/15 03:22:27;;;;;;;1.85;1.3;;;;;;;6.65;81.91309;94198.16;;;;
2019/12/15 03:23:29;;;;;;;1.85;1.3;;;;;;;6.65;81.91309;94198.16;;;;
2019/12/15 03:24:30;;;;;;;1.85;1.3;;;;;;;6.65;81.91309;94198.16;;;;
2019/12/15 03:25:31;;;;;;;1.85;1.3;;;;;;;6.65;81.91309;94198.16;;;;
2019/12/15 03:26:32;;;;;;;1.85;1.3;;;;;;;6.65;81.91309;94198.16;;;;
2019/12/15 03:27:33;;;;;;;1.85;1.3;;;;;;;6.65;81.91309;94198.16;;;;
2019/12/15 03:28:34;;;;;;;1.85;1.3;;;;;;;6.65;81.91309;94198.16;;;;
2019/12/15 03:29:36;;;;;;;1.85;1.3;;;;;;;6.65;81.91309;94198.16;;;;
2019/12/15 03:30:37;;;;;;;1.85;1.3;;;;;;;6.65;81.91309;94198.16;;;;
2019/12/15 03:31:38;;;;;;;1.85;1.3;;;;;;;6.65;81.91309;94198.16;;;;
2019/12/15 03:32:39;;;;;;;1.85;1.3;;;;;;;6.65;81.91309;94198.16;;;;
2019/12/15 03:33:40;;;;;;;1.85;1.3;;;;;;;6.65;81.91309;94198.16;;;;
2019/12/15 03:34:41;;;;;;;1.85;1.3;;;;;;;6.65;81.91309;94198.16;;;;
2019/12/15 03:35:42;;;;;;;1.85;1.3;;;;;;;6.65;81.91309;94198.16;;;;
2019/12/15 03:36:43;;;;;;;1.85;1.3;;;;;;;6.65;81.91309;94198.16;;;;
2019/12/15 03:37:45;;;;;;;1.85;1.3;;;;;;;6.65;81.91309;94198.16;;;;
2019/12/15 03:38:46;;;;;;;1.85;1.3;;;;;;;6.65;81.91309;94198.16;;;;
2019/12/15 03:39:49;;;;;;;1.85;1.3;;;;;;;6.65;81.91309;94198.16;;;;
2019/12/15 03:40:51;;;;;;;2.55;1.4;;;;;;;6.63;81.81445;94151.98;;;;
2019/12/15 03:41:53;;;;;;;2.55;1.4;;;;;;;6.63;81.81445;94151.98;;;;
2019/12/15 03:42:54;;;;;;;2.55;1.4;;;;;;;6.63;81.81445;94151.98;;;;
2019/12/15 03:43:55;;;;;;;2.55;1.4;;;;;;;6.63;81.81445;94151.98;;;;
2019/12/15 03:44:56;;;;;;;2.55;1.4;;;;;;;6.63;81.81445;94151.98;;;;
2019/12/15 03:45:57;;;;;;;2.55;1.4;;;;;;;6.63;81.81445;94151.98;;;;
2019/12/15 03:46:59;;;;;;;2.55;1.4;;;;;;;6.63;81.81445;94151.98;;;;
2019/12/15 03:48:00;;;;;;;2.55;1.4;;;;;;;6.63;81.81445;94151.98;;;;
2019/12/15 03:49:01;;;;;;;2.55;1.4;;;;;;;6.63;81.81445;94151.98;;;;
2019/12/15 03:55:11;;;;;;;3.15;1.5;;;;;;;6.53;82.20703;94124.58;;;;
2019/12/15 03:56:12;;;;;;;3.15;1.5;;;;;;;6.53;82.20703;94124.58;;;;
2019/12/15 03:57:13;;;;;;;3.15;1.5;;;;;;;6.53;82.20703;94124.58;;;;
2019/12/15 03:58:14;;;;;;;3.15;1.5;;;;;;;6.53;82.20703;94124.58;;;;
2019/12/15 03:59:15;;;;;;;3.15;1.5;;;;;;;6.53;82.20703;94124.58;;;;
2019/12/15 04:00:16;;;;;;;3.15;1.5;;;;;;;6.53;82.20703;94124.58;;;;
2019/12/15 04:01:19;;;;;;;3.15;1.5;;;;;;;6.53;82.20703;94124.58;;;;
2019/12/15 04:02:21;;;;;;;2.6;1.4;;;;;;;6.42;82.27051;94122.75;;;;
2019/12/15 04:03:22;;;;;;;2.6;1.4;;;;;;;6.42;82.27051;94122.75;;;;
2019/12/15 04:04:23;;;;;;;2.6;1.4;;;;;;;6.42;82.27051;94122.75;;;;
2019/12/15 04:05:24;;;;;;;2.6;1.4;;;;;;;6.42;82.27051;94122.75;;;;
2019/12/15 04:06:26;;;;;;;2.6;1.4;;;;;;;6.42;82.27051;94122.75;;;;
2019/12/15 04:07:27;;;;;;;2.6;1.4;;;;;;;6.42;82.27051;94122.75;;;;
2019/12/15 04:08:28;;;;;;;2.6;1.4;;;;;;;6.42;82.27051;94122.75;;;;
2019/12/15 04:09:29;;;;;;;2.6;1.4;;;;;;;6.42;82.27051;94122.75;;;;
2019/12/15 04:10:30;;;;;;;2.6;1.4;;;;;;;6.42;82.27051;94122.75;;;;
2019/12/15 04:11:32;;;;;;;2.6;1.4;;;;;;;6.42;82.27051;94122.75;;;;
2019/12/15 04:12:33;;;;;;;2.05;1.2;;;;;;;6.39;82.14844;94129.94;;;;
2019/12/15 04:13:34;;;;;;;2.05;1.2;;;;;;;6.39;82.14844;94129.94;;;;
2019/12/15 04:14:35;;;;;;;2.05;1.2;;;;;;;6.39;82.14844;94129.94;;;;
2019/12/15 04:15:36;;;;;;;2.05;1.2;;;;;;;6.39;82.14844;94129.94;;;;
2019/12/15 04:16:37;;;;;;;2.05;1.2;;;;;;;6.39;82.14844;94129.94;;;;
2019/12/15 04:17:38;;;;;;;2.05;1.2;;;;;;;6.39;82.14844;94129.94;;;;
2019/12/15 04:18:40;;;;;;;2.05;1.2;;;;;;;6.39;82.14844;94129.94;;;;
2019/12/15 04:19:41;;;;;;;2.05;1.2;;;;;;;6.39;82.14844;94129.94;;;;
2019/12/15 04:20:42;;;;;;;2.05;1.2;;;;;;;6.39;82.14844;94129.94;;;;
2019/12/15 04:21:43;;;;;;;2.05;1.2;;;;;;;6.39;82.14844;94129.94;;;;
2019/12/15 04:22:44;;;;;;;2.05;1.2;;;;;;;6.39;82.14844;94129.94;;;;
2019/12/15 04:23:45;;;;;;;2;1.4;;;;;;;6.29;81.95117;94154.66;;;;
2019/12/15 04:24:46;;;;;;;2;1.4;;;;;;;6.29;81.95117;94154.66;;;;
2019/12/15 04:25:48;;;;;;;2;1.4;;;;;;;6.29;81.95117;94154.66;;;;
2019/12/15 04:26:49;;;;;;;2;1.4;;;;;;;6.29;81.95117;94154.66;;;;
2019/12/15 04:27:50;;;;;;;2;1.4;;;;;;;6.29;81.95117;94154.66;;;;
2019/12/15 04:28:52;;;;;;;2;1.4;;;;;;;6.29;81.95117;94154.66;;;;
2019/12/15 04:29:53;;;;;;;2;1.4;;;;;;;6.29;81.95117;94154.66;;;;
2019/12/15 04:30:54;;;;;;;2;1.4;;;;;;;6.29;81.95117;94154.66;;;;
2019/12/15 04:31:55;;;;;;;2;1.4;;;;;;;6.29;81.95117;94154.66;;;;
2019/12/15 04:32:56;;;;;;;2;1.4;;;;;;;6.29;81.95117;94154.66;;;;
2019/12/15 04:33:57;;;;;;;1.8;1.4;;;;;;;6.25;82.28223;94135.57;;;;
2019/12/15 04:34:58;;;;;;;1.8;1.4;;;;;;;6.25;82.28223;94135.57;;;;
2019/12/15 04:35:59;;;;;;;1.8;1.4;;;;;;;6.25;82.28223;94135.57;;;;
2019/12/15 04:37:00;;;;;;;1.8;1.4;;;;;;;6.25;82.28223;94135.57;;;;
2019/12/15 04:38:01;;;;;;;1.8;1.4;;;;;;;6.25;82.28223;94135.57;;;;
2019/12/15 04:39:03;;;;;;;1.8;1.4;;;;;;;6.25;82.28223;94135.57;;;;
2019/12/15 04:40:04;;;;;;;1.8;1.4;;;;;;;6.25;82.28223;94135.57;;;;
2019/12/15 04:41:05;;;;;;;1.8;1.4;;;;;;;6.25;82.28223;94135.57;;;;
2019/12/15 04:42:06;;;;;;;1.8;1.4;;;;;;;6.25;82.28223;94135.57;;;;
2019/12/15 04:43:08;;;;;;;1.8;1.4;;;;;;;6.25;82.28223;94135.57;;;;
2019/12/15 04:44:09;;;;;;;2.1;1.35;;;;;;;6.15;81.95605;94147.02;;;;
2019/12/15 04:45:10;;;;;;;2.1;1.35;;;;;;;6.15;81.95605;94147.02;;;;
2019/12/15 04:46:11;;;;;;;2.1;1.35;;;;;;;6.15;81.95605;94147.02;;;;
2019/12/15 04:47:12;;;;;;;2.1;1.35;;;;;;;6.15;81.95605;94147.02;;;;
2019/12/15 04:48:13;;;;;;;2.1;1.35;;;;;;;6.15;81.95605;94147.02;;;;
2019/12/15 04:49:14;;;;;;;2.1;1.35;;;;;;;6.15;81.95605;94147.02;;;;
2019/12/15 04:50:15;;;;;;;2.1;1.35;;;;;;;6.15;81.95605;94147.02;;;;
2019/12/15 04:51:16;;;;;;;2.1;1.35;;;;;;;6.15;81.95605;94147.02;;;;
2019/12/15 04:52:17;;;;;;;2.1;1.35;;;;;;;6.15;81.95605;94147.02;;;;
2019/12/15 04:53:18;;;;;;;2.1;1.35;;;;;;;6.15;81.95605;94147.02;;;;
2019/12/15 04:54:19;;;;;;;2.1;1.35;;;;;;;6.15;81.95605;94147.02;;;;
2019/12/15 04:55:21;;;;;;;1.3;1.2;;;;;;;6.1;81.53516;94141.94;;;;
2019/12/15 04:56:22;;;;;;;1.3;1.2;;;;;;;6.1;81.53516;94141.94;;;;
2019/12/15 04:57:23;;;;;;;1.3;1.2;;;;;;;6.1;81.53516;94141.94;;;;
2019/12/15 04:58:24;;;;;;;1.3;1.2;;;;;;;6.1;81.53516;94141.94;;;;
2019/12/15 04:59:25;;;;;;;1.3;1.2;;;;;;;6.1;81.53516;94141.94;;;;
2019/12/15 05:00:26;;;;;;;1.3;1.2;;;;;;;6.1;81.53516;94141.94;;;;
2019/12/15 05:01:27;;;;;;;1.3;1.2;;;;;;;6.1;81.53516;94141.94;;;;
2019/12/15 05:02:28;;;;;;;1.3;1.2;;;;;;;6.1;81.53516;94141.94;;;;
2019/12/15 05:03:29;;;;;;;1.3;1.2;;;;;;;6.1;81.53516;94141.94;;;;
2019/12/15 05:04:30;;;;;;;1.3;1.2;;;;;;;6.1;81.53516;94141.94;;;;
2019/12/15 05:05:31;;;;;;;2.6;1.35;;;;;;;5.96;81.16016;94154.07;;;;
2019/12/15 05:06:32;;;;;;;2.6;1.35;;;;;;;5.96;81.16016;94154.07;;;;
2019/12/15 05:07:34;;;;;;;2.6;1.35;;;;;;;5.96;81.16016;94154.07;;;;
2019/12/15 05:08:35;;;;;;;2.6;1.35;;;;;;;5.96;81.16016;94154.07;;;;
2019/12/15 05:09:36;;;;;;;2.6;1.35;;;;;;;5.96;81.16016;94154.07;;;;
2019/12/15 05:10:37;;;;;;;2.6;1.35;;;;;;;5.96;81.16016;94154.07;;;;
2019/12/15 05:11:38;;;;;;;2.6;1.35;;;;;;;5.96;81.16016;94154.07;;;;
2019/12/15 05:12:39;;;;;;;2.6;1.35;;;;;;;5.96;81.16016;94154.07;;;;
2019/12/15 05:13:40;;;;;;;2.6;1.35;;;;;;;5.96;81.16016;94154.07;;;;
2019/12/15 05:14:41;;;;;;;2.6;1.35;;;;;;;5.96;81.16016;94154.07;;;;
2019/12/15 05:15:42;;;;;;;2.6;1.35;;;;;;;5.96;81.16016;94154.07;;;;
2019/12/15 05:16:43;;;;;;;3.25;1.4;;;;;;;5.96;80.88477;94149.13;;;;
2019/12/15 05:17:45;;;;;;;3.25;1.4;;;;;;;5.96;80.88477;94149.13;;;;
2019/12/15 05:18:46;;;;;;;3.25;1.4;;;;;;;5.96;80.88477;94149.13;;;;
2019/12/15 05:19:47;;;;;;;3.25;1.4;;;;;;;5.96;80.88477;94149.13;;;;
2019/12/15 05:20:48;;;;;;;3.25;1.4;;;;;;;5.96;80.88477;94149.13;;;;
2019/12/15 05:21:49;;;;;;;3.25;1.4;;;;;;;5.96;80.88477;94149.13;;;;
2019/12/15 05:22:50;;;;;;;3.25;1.4;;;;;;;5.96;80.88477;94149.13;;;;
2019/12/15 05:23:51;;;;;;;3.25;1.4;;;;;;;5.96;80.88477;94149.13;;;;
2019/12/15 05:24:52;;;;;;;3.25;1.4;;;;;;;5.96;80.88477;94149.13;;;;
2019/12/15 05:25:53;;;;;;;3.25;1.4;;;;;;;5.96;80.88477;94149.13;;;;
2019/12/15 05:26:54;;;;;;;1.9;1.3;;;;;;;5.97;80.46387;94164.58;;;;
2019/12/15 05:27:55;;;;;;;1.9;1.3;;;;;;;5.97;80.46387;94164.58;;;;
2019/12/15 05:28:56;;;;;;;1.9;1.3;;;;;;;5.97;80.46387;94164.58;;;;
2019/12/15 05:29:58;;;;;;;1.9;1.3;;;;;;;5.97;80.46387;94164.58;;;;
2019/12/15 05:30:59;;;;;;;1.9;1.3;;;;;;;5.97;80.46387;94164.58;;;;
2019/12/15 05:32:00;;;;;;;1.9;1.3;;;;;;;5.97;80.46387;94164.58;;;;
2019/12/15 05:33:01;;;;;;;1.9;1.3;;;;;;;5.97;80.46387;94164.58;;;;
2019/12/15 05:34:02;;;;;;;1.9;1.3;;;;;;;5.97;80.46387;94164.58;;;;
2019/12/15 05:35:03;;;;;;;1.9;1.3;;;;;;;5.97;80.46387;94164.58;;;;
2019/12/15 05:36:04;;;;;;;1.9;1.3;;;;;;;5.97;80.46387;94164.58;;;;
2019/12/15 05:37:05;;;;;;;1.9;1.3;;;;;;;5.97;80.46387;94164.58;;;;
2019/12/15 05:38:06;;;;;;;2.1;1.3;;;;;;;5.91;80.18945;94164.58;;;;
2019/12/15 05:39:07;;;;;;;2.1;1.3;;;;;;;5.91;80.18945;94164.58;;;;
2019/12/15 05:40:09;;;;;;;2.1;1.3;;;;;;;5.91;80.18945;94164.58;;;;
2019/12/15 05:41:10;;;;;;;2.1;1.3;;;;;;;5.91;80.18945;94164.58;;;;
2019/12/15 05:42:11;;;;;;;2.1;1.3;;;;;;;5.91;80.18945;94164.58;;;;
2019/12/15 05:43:12;;;;;;;2.1;1.3;;;;;;;5.91;80.18945;94164.58;;;;
2019/12/15 05:44:13;;;;;;;2.1;1.3;;;;;;;5.91;80.18945;94164.58;;;;
2019/12/15 05:45:14;;;;;;;2.1;1.3;;;;;;;5.91;80.18945;94164.58;;;;
2019/12/15 05:46:15;;;;;;;2.1;1.3;;;;;;;5.91;80.18945;94164.58;;;;
2019/12/15 05:47:16;;;;;;;2.1;1.3;;;;;;;5.91;80.18945;94164.58;;;;
2019/12/15 05:48:17;;;;;;;1.55;1.2;;;;;;;5.83;79.77441;94158.64;;;;
2019/12/15 05:49:19;;;;;;;1.55;1.2;;;;;;;5.83;79.77441;94158.64;;;;
2019/12/15 05:50:20;;;;;;;1.55;1.2;;;;;;;5.83;79.77441;94158.64;;;;
2019/12/15 05:51:21;;;;;;;1.55;1.2;;;;;;;5.83;79.77441;94158.64;;;;
2019/12/15 05:52:22;;;;;;;1.55;1.2;;;;;;;5.83;79.77441;94158.64;;;;
2019/12/15 05:53:23;;;;;;;1.55;1.2;;;;;;;5.83;79.77441;94158.64;;;;
2019/12/15 05:54:24;;;;;;;1.55;1.2;;;;;;;5.83;79.77441;94158.64;;;;
2019/12/15 05:55:25;;;;;;;1.55;1.2;;;;;;;5.83;79.77441;94158.64;;;;
2019/12/15 05:56:26;;;;;;;1.55;1.2;;;;;;;5.83;79.77441;94158.64;;;;
2019/12/15 05:57:27;;;;;;;1.55;1.2;;;;;;;5.83;79.77441;94158.64;;;;
2019/12/15 05:58:28;;;;;;;1.65;1.2;;;;;;;5.62;79.49121;94144.48;;;;
2019/12/15 05:59:29;;;;;;;1.65;1.2;;;;;;;5.62;79.49121;94144.48;;;;
2019/12/15 06:00:30;;;;;;;1.65;1.2;;;;;;;5.62;79.49121;94144.48;;;;
2019/12/15 06:01:32;;;;;;;1.65;1.2;;;;;;;5.62;79.49121;94144.48;;;;
2019/12/15 06:02:33;;;;;;;1.65;1.2;;;;;;;5.62;79.49121;94144.48;;;;
2019/12/15 06:03:34;;;;;;;1.65;1.2;;;;;;;5.62;79.49121;94144.48;;;;
2019/12/15 06:04:35;;;;;;;1.65;1.2;;;;;;;5.62;79.49121;94144.48;;;;
2019/12/15 06:05:36;;;;;;;1.65;1.2;;;;;;;5.62;79.49121;94144.48;;;;
2019/12/15 06:06:37;;;;;;;1.65;1.2;;;;;;;5.62;79.49121;94144.48;;;;
2019/12/15 06:07:38;;;;;;;1.65;1.2;;;;;;;5.62;79.49121;94144.48;;;;
2019/12/15 06:08:39;;;;;;;1.65;1.2;;;;;;;5.62;79.49121;94144.48;;;;
2019/12/15 06:09:40;;;;;;;1.6;1.2;;;;;;;5.31;79.49902;94157.26;;;;
2019/12/15 06:10:41;;;;;;;1.6;1.2;;;;;;;5.31;79.49902;94157.26;;;;
2019/12/15 06:11:43;;;;;;;1.6;1.2;;;;;;;5.31;79.49902;94157.26;;;;
2019/12/15 06:12:44;;;;;;;1.6;1.2;;;;;;;5.31;79.49902;94157.26;;;;